Time;durP1;ratioP1;P1;durP2;ratioP2;P2;SDS_P1;SDS_P2;PMS_P1;PMS_P2;Temp;Humidity;BMP_temperature;BMP_pressure;BME280_temperature;BME280_humidity;BME280_pressure;Samples;Min_cycle;Max_cycle;Signal;HPM_P1;HPM_P2
2022/04/08 00:01:57;;;;;;;2.23;1.10;;;;;;;;;;5118027;28;20297;-75
2022/04/08 00:04:26;;;;;;;1.37;1.27;;;;;;;;;;5117667;28;20211;-75
2022/04/08 00:06:54;;;;;;;1.10;1.00;;;;;;;;;;5117355;28;20231;-75
2022/04/08 00:09:21;;;;;;;1.90;1.27;;;;;;;;;;5117658;28;20201;-75
2022/04/08 00:11:50;;;;;;;2.07;1.03;;;;;;;;;;5117599;28;20335;-75
2022/04/08 00:14:18;;;;;;;1.30;1.20;;;;;;;;;;5117887;28;20208;-75
2022/04/08 00:16:48;;;;;;;1.30;1.20;;;;;;;;;;5117740;28;20212;-75
2022/04/08 00:19:16;;;;;;;1.37;1.20;;;;;;;;;;5117871;28;20204;-75
2022/04/08 00:21:44;;;;;;;1.23;1.13;;;;;;;;;;5117390;28;20268;-75
2022/04/08 00:24:12;;;;;;;1.37;1.10;;;;;;;;;;5117814;28;20201;-75
2022/04/08 00:26:41;;;;;;;2.07;1.40;;;;;;;;;;5117586;28;20702;-75
2022/04/08 00:29:10;;;;;;;1.17;1.10;;;;;;;;;;5115302;28;20221;-75
2022/04/08 00:31:37;;;;;;;2.53;1.27;;;;;;;;;;5117847;28;20197;-75
2022/04/08 00:34:07;;;;;;;5.03;1.33;;;;;;;;;;5117431;28;20201;-75
2022/04/08 00:36:35;;;;;;;1.00;1.00;;;;;;;;;;5117350;28;20227;-75
2022/04/08 00:39:03;;;;;;;1.03;1.00;;;;;;;;;;5117233;28;20291;-75
2022/04/08 00:41:31;;;;;;;2.70;1.20;;;;;;;;;;5117678;28;20197;-75
2022/04/08 00:43:59;;;;;;;1.37;1.00;;;;;;;;;;5117549;28;20205;-75
2022/04/08 00:46:27;;;;;;;1.53;1.20;;;;;;;;;;5117470;28;20247;-75
2022/04/08 00:48:55;;;;;;;0.97;0.90;;;;;;;;;;5121205;28;20569;-75
2022/04/08 00:51:25;;;;;;;2.30;1.00;;;;;;;;;;5120939;28;20258;-75
2022/04/08 00:53:53;;;;;;;1.30;1.20;;;;;;;;;;5121587;28;20201;-75
2022/04/08 00:56:22;;;;;;;2.77;1.10;;;;;;;;;;5121145;28;20686;-75
2022/04/08 00:58:51;;;;;;;1.77;1.20;;;;;;;;;;5121858;27;20211;-75
2022/04/08 01:01:19;;;;;;;1.40;1.10;;;;;;;;;;5120991;28;20244;-75
2022/04/08 01:03:47;;;;;;;1.80;1.10;;;;;;;;;;5113241;28;20223;-75
2022/04/08 01:06:15;;;;;;;1.07;0.97;;;;;;;;;;5120540;28;20266;-75
2022/04/08 01:08:45;;;;;;;1.33;1.10;;;;;;;;;;5120626;28;20553;-75
2022/04/08 01:11:13;;;;;;;1.10;1.00;;;;;;;;;;5120915;28;20227;-75
2022/04/08 01:13:41;;;;;;;1.47;1.20;;;;;;;;;;5120938;28;20215;-75
2022/04/08 01:16:09;;;;;;;1.43;1.33;;;;;;;;;;5120854;28;20221;-75
2022/04/08 01:18:38;;;;;;;4.83;1.20;;;;;;;;;;5120944;28;20201;-75
2022/04/08 01:21:06;;;;;;;3.10;1.30;;;;;;;;;;5120755;28;20203;-75
2022/04/08 01:23:35;;;;;;;1.20;1.10;;;;;;;;;;5120754;28;20200;-75
2022/04/08 01:26:05;;;;;;;2.27;1.30;;;;;;;;;;5120670;28;20225;-75
2022/04/08 01:28:33;;;;;;;1.47;1.37;;;;;;;;;;5113658;28;20225;-75
2022/04/08 01:31:02;;;;;;;1.30;1.20;;;;;;;;;;5120806;28;20287;-75
2022/04/08 01:33:30;;;;;;;1.93;1.30;;;;;;;;;;5120884;28;20197;-75
2022/04/08 01:35:58;;;;;;;1.37;1.20;;;;;;;;;;5120001;28;20614;-75
2022/04/08 01:38:26;;;;;;;3.00;1.40;;;;;;;;;;5120308;28;20197;-75
2022/04/08 01:40:54;;;;;;;1.90;0.97;;;;;;;;;;5120234;28;20679;-75
2022/04/08 01:43:23;;;;;;;1.03;0.90;;;;;;;;;;5120414;28;20201;-75
2022/04/08 01:45:51;;;;;;;1.17;1.00;;;;;;;;;;5120591;28;20227;-75
2022/04/08 01:48:19;;;;;;;1.07;1.07;;;;;;;;;;5119899;28;20205;-75
2022/04/08 01:50:47;;;;;;;2.03;1.10;;;;;;;;;;5119834;28;20196;-75
2022/04/08 01:53:15;;;;;;;1.03;1.03;;;;;;;;;;5119807;28;21911;-75
2022/04/08 01:55:43;;;;;;;4.93;1.23;;;;;;;;;;5120081;28;20271;-75
2022/04/08 01:58:11;;;;;;;1.17;1.17;;;;;;;;;;5119746;28;20204;-75
2022/04/08 02:00:41;;;;;;;0.87;0.87;;;;;;;;;;5119470;28;20231;-75
2022/04/08 02:03:10;;;;;;;3.27;1.37;;;;;;;;;;5119860;28;20250;-75
2022/04/08 02:05:38;;;;;;;1.63;1.30;;;;;;;;;;5119778;28;20216;-75
2022/04/08 02:08:06;;;;;;;1.17;1.07;;;;;;;;;;5119703;28;20197;-75
2022/04/08 02:10:34;;;;;;;1.33;0.90;;;;;;;;;;5119746;28;20197;-75
2022/04/08 02:13:02;;;;;;;1.33;1.23;;;;;;;;;;5119804;28;20660;-75
2022/04/08 02:15:32;;;;;;;1.20;1.07;;;;;;;;;;5119465;28;20250;-75
2022/04/08 02:18:02;;;;;;;1.97;1.00;;;;;;;;;;5119925;28;20205;-75
2022/04/08 02:20:30;;;;;;;1.60;0.90;;;;;;;;;;5119542;28;20209;-76
2022/04/08 02:22:59;;;;;;;1.13;0.77;;;;;;;;;;5119533;28;20227;-75
2022/04/08 02:25:27;;;;;;;1.30;1.20;;;;;;;;;;5119282;28;20700;-75
2022/04/08 02:27:55;;;;;;;2.60;1.40;;;;;;;;;;5117148;28;20197;-75
2022/04/08 02:30:23;;;;;;;1.47;1.23;;;;;;;;;;5118747;28;20205;-75
2022/04/08 02:32:51;;;;;;;2.33;1.20;;;;;;;;;;5119637;28;20222;-75
2022/04/08 02:35:21;;;;;;;1.00;0.90;;;;;;;;;;5118929;28;20227;-75
2022/04/08 02:37:49;;;;;;;1.50;1.40;;;;;;;;;;5118985;28;20221;-75
2022/04/08 02:40:17;;;;;;;0.90;0.90;;;;;;;;;;5119312;28;20560;-75
2022/04/08 02:42:45;;;;;;;1.67;1.10;;;;;;;;;;5111244;28;20193;-75
2022/04/08 02:45:13;;;;;;;1.20;1.10;;;;;;;;;;5119104;28;20201;-75
2022/04/08 02:47:41;;;;;;;1.53;1.13;;;;;;;;;;5119764;28;20204;-75
2022/04/08 02:50:10;;;;;;;1.40;1.13;;;;;;;;;;5119268;28;20207;-75
2022/04/08 02:52:39;;;;;;;2.27;1.00;;;;;;;;;;5119025;28;20201;-75
2022/04/08 02:55:08;;;;;;;1.83;1.17;;;;;;;;;;5119143;28;20288;-75
2022/04/08 02:57:44;;;;;;;1.27;1.13;;;;;;;;;;5118817;28;20221;-75
2022/04/08 03:00:14;;;;;;;1.00;0.80;;;;;;;;;;5118724;28;20232;-75
2022/04/08 03:02:42;;;;;;;0.90;0.90;;;;;;;;;;5118914;27;20272;-75
2022/04/08 03:05:10;;;;;;;0.70;0.70;;;;;;;;;;5118473;27;20201;-76
2022/04/08 03:07:39;;;;;;;1.17;1.07;;;;;;;;;;5118490;28;20223;-75
2022/04/08 03:10:08;;;;;;;2.47;1.07;;;;;;;;;;5119095;28;20283;-75
2022/04/08 03:12:36;;;;;;;0.73;0.73;;;;;;;;;;5118470;28;20205;-77
2022/04/08 03:15:05;;;;;;;2.70;1.10;;;;;;;;;;5118623;28;20560;-77
2022/04/08 03:17:35;;;;;;;1.80;0.90;;;;;;;;;;5118556;28;20220;-76
2022/04/08 03:20:03;;;;;;;1.10;0.90;;;;;;;;;;5117904;28;20199;-75
2022/04/08 03:22:31;;;;;;;0.90;0.90;;;;;;;;;;5122498;27;20201;-75
2022/04/08 03:25:01;;;;;;;0.70;0.70;;;;;;;;;;5120038;28;20284;-76
2022/04/08 03:27:29;;;;;;;1.20;0.70;;;;;;;;;;5118436;28;20196;-75
2022/04/08 03:29:57;;;;;;;0.80;0.80;;;;;;;;;;5119210;28;20288;-75
2022/04/08 03:32:25;;;;;;;0.87;0.87;;;;;;;;;;5119554;28;20197;-74
2022/04/08 03:34:57;;;;;;;1.83;1.10;;;;;;;;;;5118593;28;20204;-75
2022/04/08 03:37:26;;;;;;;2.17;0.90;;;;;;;;;;5118306;28;20304;-75
2022/04/08 03:39:54;;;;;;;2.00;0.90;;;;;;;;;;5118439;28;20246;-75
2022/04/08 03:42:25;;;;;;;0.93;0.80;;;;;;;;;;5118200;28;20727;-75
2022/04/08 03:44:54;;;;;;;7.40;1.03;;;;;;;;;;5117606;28;20284;-79
2022/04/08 03:47:22;;;;;;;0.80;0.80;;;;;;;;;;5117962;27;20215;-79
2022/04/08 03:49:50;;;;;;;1.50;0.90;;;;;;;;;;5117623;28;20201;-78
2022/04/08 03:52:18;;;;;;;0.70;0.70;;;;;;;;;;5117873;28;20228;-80
2022/04/08 03:54:46;;;;;;;0.73;0.70;;;;;;;;;;5118972;28;20231;-79
2022/04/08 03:57:14;;;;;;;2.00;1.00;;;;;;;;;;5117139;28;20678;-80
2022/04/08 03:59:44;;;;;;;0.73;0.73;;;;;;;;;;5117447;28;20284;-79
2022/04/08 04:02:12;;;;;;;1.10;1.10;;;;;;;;;;5117654;28;20201;-79
2022/04/08 04:04:40;;;;;;;1.10;1.10;;;;;;;;;;5117965;28;20208;-80
2022/04/08 04:07:08;;;;;;;1.43;0.93;;;;;;;;;;5117655;28;20284;-80
2022/04/08 04:09:36;;;;;;;2.70;0.97;;;;;;;;;;5117637;28;20280;-80
2022/04/08 04:12:05;;;;;;;0.83;0.83;;;;;;;;;;5117578;28;20287;-80
2022/04/08 04:14:32;;;;;;;0.80;0.80;;;;;;;;;;5117819;28;20196;-80
2022/04/08 04:17:02;;;;;;;1.10;0.80;;;;;;;;;;5117632;28;20225;-80
2022/04/08 04:19:30;;;;;;;1.00;1.00;;;;;;;;;;5117319;28;20196;-81
2022/04/08 04:21:58;;;;;;;0.60;0.60;;;;;;;;;;5119738;28;20200;-81
2022/04/08 04:24:26;;;;;;;1.53;1.07;;;;;;;;;;5120692;28;20644;-80
2022/04/08 04:26:54;;;;;;;0.63;0.60;;;;;;;;;;5123993;28;20219;-80
2022/04/08 04:29:22;;;;;;;1.03;0.80;;;;;;;;;;5122844;28;20211;-80
2022/04/08 04:31:51;;;;;;;1.40;0.77;;;;;;;;;;5124419;28;20253;-80
2022/04/08 04:34:21;;;;;;;1.30;1.00;;;;;;;;;;5124189;27;20205;-81
2022/04/08 04:36:49;;;;;;;1.80;0.80;;;;;;;;;;5124552;28;20213;-81
2022/04/08 04:39:18;;;;;;;1.13;0.97;;;;;;;;;;5124566;28;20228;-80
2022/04/08 04:41:45;;;;;;;0.97;0.90;;;;;;;;;;5119445;28;20199;-80
2022/04/08 04:44:14;;;;;;;1.13;0.87;;;;;;;;;;5124356;27;20687;-81
2022/04/08 04:46:43;;;;;;;0.80;0.80;;;;;;;;;;5123890;28;21591;-80
2022/04/08 04:49:11;;;;;;;0.90;0.90;;;;;;;;;;5124210;28;20197;-80
2022/04/08 04:51:41;;;;;;;0.83;0.83;;;;;;;;;;5123966;27;20203;-80
2022/04/08 04:54:09;;;;;;;0.80;0.80;;;;;;;;;;5124216;27;20689;-80
2022/04/08 04:56:36;;;;;;;0.80;0.80;;;;;;;;;;5123919;28;20248;-81
2022/04/08 04:59:04;;;;;;;0.93;0.80;;;;;;;;;;5124344;28;20225;-80
2022/04/08 05:01:32;;;;;;;0.90;0.90;;;;;;;;;;5124118;28;20232;-80
2022/04/08 05:04:00;;;;;;;1.97;0.70;;;;;;;;;;5124193;28;20280;-80
2022/04/08 05:06:28;;;;;;;2.10;0.90;;;;;;;;;;5123766;28;20227;-81
2022/04/08 05:08:59;;;;;;;0.63;0.63;;;;;;;;;;5124437;28;20254;-80
2022/04/08 05:11:27;;;;;;;0.87;0.87;;;;;;;;;;5123829;27;20197;-81
2022/04/08 05:13:55;;;;;;;0.80;0.80;;;;;;;;;;5124860;27;20294;-80
2022/04/08 05:16:23;;;;;;;2.03;0.90;;;;;;;;;;5124169;27;20745;-80
2022/04/08 05:18:51;;;;;;;0.80;0.80;;;;;;;;;;5124454;27;20226;-80
2022/04/08 05:21:19;;;;;;;1.23;0.93;;;;;;;;;;5123878;27;20201;-80
2022/04/08 05:23:47;;;;;;;0.60;0.60;;;;;;;;;;5123927;28;20201;-80
2022/04/08 05:26:16;;;;;;;0.60;0.60;;;;;;;;;;5123950;28;20221;-80
2022/04/08 05:28:44;;;;;;;0.80;0.80;;;;;;;;;;5119380;27;20256;-80
2022/04/08 05:31:12;;;;;;;0.70;0.70;;;;;;;;;;5124216;27;20204;-81
2022/04/08 05:33:41;;;;;;;2.10;1.20;;;;;;;;;;5121430;28;20262;-80
2022/04/08 05:36:09;;;;;;;0.90;0.77;;;;;;;;;;5120140;28;20588;-80
2022/04/08 05:38:37;;;;;;;1.00;1.00;;;;;;;;;;5120014;28;20227;-81
2022/04/08 05:41:04;;;;;;;0.70;0.70;;;;;;;;;;5120545;28;20254;-81
2022/04/08 05:43:34;;;;;;;0.90;0.90;;;;;;;;;;5120159;28;20201;-80
2022/04/08 05:46:02;;;;;;;0.70;0.70;;;;;;;;;;5120211;28;20217;-80
2022/04/08 05:48:30;;;;;;;1.43;0.80;;;;;;;;;;5120414;28;20193;-80
2022/04/08 05:51:00;;;;;;;1.33;1.00;;;;;;;;;;5120150;28;20292;-80
2022/04/08 05:53:28;;;;;;;2.30;1.43;;;;;;;;;;5120306;28;20209;-81
2022/04/08 05:56:04;;;;;;;1.40;1.30;;;;;;;;;;5120216;28;20273;-80
2022/04/08 05:58:32;;;;;;;0.80;0.80;;;;;;;;;;5116133;28;20252;-81
2022/04/08 06:01:01;;;;;;;1.00;1.00;;;;;;;;;;5119699;28;20221;-80
2022/04/08 06:03:30;;;;;;;0.97;0.77;;;;;;;;;;5120080;28;20276;-80
2022/04/08 06:05:57;;;;;;;1.17;1.00;;;;;;;;;;5119285;28;20609;-80
2022/04/08 06:08:26;;;;;;;1.00;0.90;;;;;;;;;;5114405;28;20195;-81
2022/04/08 06:10:54;;;;;;;0.80;0.80;;;;;;;;;;5119693;28;20193;-81
2022/04/08 06:13:24;;;;;;;1.00;1.00;;;;;;;;;;5119736;28;20208;-81
2022/04/08 06:15:53;;;;;;;0.80;0.80;;;;;;;;;;5119165;28;20239;-80
2022/04/08 06:18:22;;;;;;;0.80;0.80;;;;;;;;;;5119838;28;20220;-80
2022/04/08 06:20:50;;;;;;;1.03;1.00;;;;;;;;;;5119185;28;20270;-81
2022/04/08 06:23:18;;;;;;;1.20;1.10;;;;;;;;;;5119227;28;20203;-80
2022/04/08 06:25:46;;;;;;;0.87;0.87;;;;;;;;;;5119287;28;20319;-81
2022/04/08 06:28:14;;;;;;;1.63;1.17;;;;;;;;;;5111734;28;20196;-80
2022/04/08 06:30:42;;;;;;;1.00;1.00;;;;;;;;;;5119593;28;20197;-79
2022/04/08 06:33:10;;;;;;;2.10;0.80;;;;;;;;;;5119293;28;20204;-81
2022/04/08 06:35:40;;;;;;;1.67;0.90;;;;;;;;;;5119003;28;20217;-80
2022/04/08 06:38:08;;;;;;;0.87;0.87;;;;;;;;;;5119191;28;20221;-80
2022/04/08 06:40:38;;;;;;;1.17;0.70;;;;;;;;;;5119156;28;20559;-80
2022/04/08 06:43:07;;;;;;;0.87;0.80;;;;;;;;;;5118898;28;20644;-81
2022/04/08 06:45:35;;;;;;;1.13;1.03;;;;;;;;;;5118553;28;20654;-80
2022/04/08 06:48:03;;;;;;;3.07;0.87;;;;;;;;;;5118440;28;20208;-81
2022/04/08 06:50:33;;;;;;;0.70;0.70;;;;;;;;;;5118911;28;20208;-80
2022/04/08 06:53:03;;;;;;;1.10;1.00;;;;;;;;;;5116512;28;20204;-80
2022/04/08 06:55:31;;;;;;;1.00;1.00;;;;;;;;;;5117010;28;20219;-80
2022/04/08 06:58:00;;;;;;;1.20;1.10;;;;;;;;;;5117935;28;20649;-80
2022/04/08 07:00:28;;;;;;;3.27;0.93;;;;;;;;;;5118075;28;20317;-80
2022/04/08 07:02:56;;;;;;;0.70;0.70;;;;;;;;;;5118861;28;20197;-80
2022/04/08 07:05:25;;;;;;;1.23;0.70;;;;;;;;;;5118701;28;20220;-81
2022/04/08 07:07:53;;;;;;;0.70;0.70;;;;;;;;;;5118836;28;20197;-80
2022/04/08 07:10:22;;;;;;;1.60;0.80;;;;;;;;;;5118866;27;20273;-80
2022/04/08 07:12:51;;;;;;;1.80;0.70;;;;;;;;;;5118781;28;20204;-80
2022/04/08 07:15:19;;;;;;;1.33;1.23;;;;;;;;;;5118354;28;20225;-81
2022/04/08 07:17:47;;;;;;;0.90;0.90;;;;;;;;;;5118889;28;20629;-80
2022/04/08 07:20:16;;;;;;;1.23;0.90;;;;;;;;;;5119178;28;20286;-80
2022/04/08 07:22:46;;;;;;;1.73;1.10;;;;;;;;;;5118746;28;20201;-80
2022/04/08 07:25:14;;;;;;;1.97;1.37;;;;;;;;;;5118557;28;20205;-81
2022/04/08 07:27:47;;;;;;;1.30;1.20;;;;;;;;;;5118021;28;20196;-80
2022/04/08 07:30:17;;;;;;;1.97;1.07;;;;;;;;;;5118223;28;20221;-80
2022/04/08 07:32:46;;;;;;;1.43;0.80;;;;;;;;;;5118486;28;20250;-80
2022/04/08 07:35:14;;;;;;;1.60;1.50;;;;;;;;;;5119706;28;20295;-80
2022/04/08 07:37:42;;;;;;;3.43;1.20;;;;;;;;;;5119278;28;20280;-80
2022/04/08 07:40:10;;;;;;;1.20;1.10;;;;;;;;;;5118854;28;20281;-81
2022/04/08 07:42:39;;;;;;;0.70;0.70;;;;;;;;;;5110703;28;20193;-81
2022/04/08 07:45:09;;;;;;;0.80;0.77;;;;;;;;;;5118167;28;20196;-80
2022/04/08 07:47:37;;;;;;;0.73;0.73;;;;;;;;;;5109997;28;20560;-81
2022/04/08 07:50:06;;;;;;;1.00;0.90;;;;;;;;;;5118009;28;20197;-81
2022/04/08 07:52:34;;;;;;;0.93;0.80;;;;;;;;;;5117777;28;20679;-80
2022/04/08 07:55:03;;;;;;;1.60;1.37;;;;;;;;;;5118027;28;20207;-81
2022/04/08 07:57:31;;;;;;;10.40;3.00;;;;;;;;;;5117287;28;20201;-81
2022/04/08 07:59:59;;;;;;;4.63;1.60;;;;;;;;;;5117714;28;20231;-80
2022/04/08 08:02:29;;;;;;;2.13;1.20;;;;;;;;;;5118037;28;20205;-80
2022/04/08 08:04:57;;;;;;;1.47;1.20;;;;;;;;;;5117380;28;20304;-80
2022/04/08 08:07:25;;;;;;;0.90;0.90;;;;;;;;;;5117395;28;20582;-80
2022/04/08 08:09:53;;;;;;;0.70;0.70;;;;;;;;;;5110695;28;20193;-80
2022/04/08 08:12:23;;;;;;;2.53;1.00;;;;;;;;;;5117472;28;20235;-80
2022/04/08 08:14:52;;;;;;;1.90;0.90;;;;;;;;;;5117759;28;20197;-80
2022/04/08 08:17:21;;;;;;;0.53;0.53;;;;;;;;;;5117593;28;20225;-81
2022/04/08 08:19:50;;;;;;;0.90;0.90;;;;;;;;;;5113265;28;20574;-81
2022/04/08 08:22:24;;;;;;;0.80;0.80;;;;;;;;;;5118448;28;20212;-80
2022/04/08 08:24:52;;;;;;;0.50;0.50;;;;;;;;;;5118345;28;20279;-81
2022/04/08 08:27:20;;;;;;;0.70;0.70;;;;;;;;;;5117199;28;20227;-81
2022/04/08 08:29:48;;;;;;;2.60;0.63;;;;;;;;;;5117036;28;20201;-81
2022/04/08 08:32:16;;;;;;;0.70;0.70;;;;;;;;;;5117313;28;20350;-81
2022/04/08 08:34:44;;;;;;;14.10;4.20;;;;;;;;;;5117010;28;20239;-80
2022/04/08 08:37:14;;;;;;;56.40;10.60;;;;;;;;;;5117736;28;20225;-80
2022/04/08 08:39:42;;;;;;;2.33;1.43;;;;;;;;;;5117058;28;20251;-81
2022/04/08 08:42:10;;;;;;;18.33;3.70;;;;;;;;;;5117442;28;20200;-81
2022/04/08 08:44:39;;;;;;;1.83;1.37;;;;;;;;;;5117397;28;20240;-80
2022/04/08 08:47:11;;;;;;;2.40;0.70;;;;;;;;;;5117700;28;20224;-81
2022/04/08 08:49:43;;;;;;;1.13;1.00;;;;;;;;;;5116877;28;20197;-80
2022/04/08 08:52:11;;;;;;;0.70;0.70;;;;;;;;;;5117690;28;20201;-80
2022/04/08 08:54:41;;;;;;;0.80;0.80;;;;;;;;;;5117157;28;20205;-81
2022/04/08 08:57:10;;;;;;;1.43;0.97;;;;;;;;;;5116905;28;20303;-81
2022/04/08 08:59:37;;;;;;;0.73;0.73;;;;;;;;;;5117243;28;20217;-80
2022/04/08 09:02:05;;;;;;;1.13;1.00;;;;;;;;;;5117643;28;20205;-81
2022/04/08 09:04:34;;;;;;;2.60;1.00;;;;;;;;;;5117088;28;20280;-81
2022/04/08 09:07:02;;;;;;;0.90;0.90;;;;;;;;;;5111522;28;20257;-81
2022/04/08 09:09:31;;;;;;;1.20;1.00;;;;;;;;;;5120333;28;20689;-81
2022/04/08 09:12:11;;;;;;;0.73;0.73;;;;;;;;;;5121547;28;20231;-81
2022/04/08 09:14:39;;;;;;;0.53;0.53;;;;;;;;;;5121125;28;20197;-81
2022/04/08 09:17:07;;;;;;;0.97;0.63;;;;;;;;;;5113797;28;20585;-82
2022/04/08 09:19:35;;;;;;;0.80;0.70;;;;;;;;;;5120595;28;20230;-81
2022/04/08 09:22:03;;;;;;;0.77;0.70;;;;;;;;;;5120743;28;22004;-81
2022/04/08 09:24:31;;;;;;;0.60;0.60;;;;;;;;;;5120770;28;20701;-82
2022/04/08 09:26:59;;;;;;;1.00;0.93;;;;;;;;;;5120608;28;20231;-81
2022/04/08 09:29:28;;;;;;;1.37;0.73;;;;;;;;;;5120567;28;20201;-81
2022/04/08 09:32:16;;;;;;;1.83;0.70;;;;;;;;;;5117574;28;20228;-81
2022/04/08 09:34:44;;;;;;;0.93;0.60;;;;;;;;;;5120496;28;20203;-81
2022/04/08 09:37:15;;;;;;;0.90;0.90;;;;;;;;;;5120177;28;20222;-82
2022/04/08 09:39:53;;;;;;;0.60;0.60;;;;;;;;;;5120430;28;20299;-82
2022/04/08 09:42:21;;;;;;;0.50;0.50;;;;;;;;;;5120371;28;20201;-82
2022/04/08 09:44:51;;;;;;;0.70;0.70;;;;;;;;;;5120389;28;20193;-82
2022/04/08 09:47:19;;;;;;;0.80;0.70;;;;;;;;;;5120405;27;20231;-81
2022/04/08 09:49:47;;;;;;;1.77;1.10;;;;;;;;;;5120339;28;20189;-82
2022/04/08 09:52:16;;;;;;;1.00;0.83;;;;;;;;;;5119789;28;20211;-82
2022/04/08 09:54:44;;;;;;;0.80;0.80;;;;;;;;;;5120326;28;20203;-81
2022/04/08 09:57:17;;;;;;;0.60;0.60;;;;;;;;;;5120361;28;20220;-81
2022/04/08 09:59:46;;;;;;;0.60;0.60;;;;;;;;;;5115903;28;20197;-81
2022/04/08 10:02:24;;;;;;;0.50;0.50;;;;;;;;;;5120058;28;20192;-81
2022/04/08 10:05:06;;;;;;;0.77;0.70;;;;;;;;;;5120137;28;20201;-80
2022/04/08 10:07:35;;;;;;;0.70;0.70;;;;;;;;;;5120180;28;20224;-81
2022/04/08 10:10:09;;;;;;;0.83;0.83;;;;;;;;;;5119963;28;20603;-81
2022/04/08 10:12:41;;;;;;;0.73;0.73;;;;;;;;;;5119462;27;20652;-81
2022/04/08 10:15:12;;;;;;;1.77;1.03;;;;;;;;;;5119823;28;20556;-81
2022/04/08 10:17:41;;;;;;;2.73;0.73;;;;;;;;;;5119783;28;20204;-81
2022/04/08 10:20:19;;;;;;;2.43;0.93;;;;;;;;;;5119137;28;20221;-81
2022/04/08 10:22:48;;;;;;;3.13;0.90;;;;;;;;;;5119433;28;20260;-79
2022/04/08 10:25:16;;;;;;;1.37;0.70;;;;;;;;;;5119651;28;20196;-80
2022/04/08 10:27:44;;;;;;;0.67;0.67;;;;;;;;;;5119980;28;20201;-82
2022/04/08 10:30:14;;;;;;;3.13;1.00;;;;;;;;;;5113128;28;20558;-81
2022/04/08 10:32:44;;;;;;;0.80;0.80;;;;;;;;;;5119955;28;20224;-82
2022/04/08 10:35:19;;;;;;;1.50;1.13;;;;;;;;;;5119092;28;20292;-79
2022/04/08 10:37:57;;;;;;;0.73;0.73;;;;;;;;;;5119593;28;20280;-80
2022/04/08 10:40:29;;;;;;;1.10;0.90;;;;;;;;;;5117113;28;20217;-80
2022/04/08 10:42:58;;;;;;;3.30;0.87;;;;;;;;;;5119540;28;20207;-80
2022/04/08 10:45:26;;;;;;;2.90;0.80;;;;;;;;;;5119098;27;20216;-80
2022/04/08 10:47:57;;;;;;;0.67;0.67;;;;;;;;;;5119066;28;20201;-80
2022/04/08 10:50:26;;;;;;;0.83;0.80;;;;;;;;;;5118712;28;20193;-80
2022/04/08 10:53:07;;;;;;;0.67;0.63;;;;;;;;;;5119215;28;20207;-79
2022/04/08 10:55:45;;;;;;;3.00;0.87;;;;;;;;;;5119239;28;20231;-79
2022/04/08 10:58:15;;;;;;;0.93;0.77;;;;;;;;;;5119211;28;20204;-79
2022/04/08 11:00:44;;;;;;;1.07;0.70;;;;;;;;;;5110314;28;20590;-80
2022/04/08 11:03:13;;;;;;;1.73;1.00;;;;;;;;;;5118694;28;20208;-80
2022/04/08 11:05:41;;;;;;;1.90;0.80;;;;;;;;;;5118545;28;20235;-80
2022/04/08 11:08:09;;;;;;;2.50;0.73;;;;;;;;;;5118793;28;20205;-80
2022/04/08 11:10:37;;;;;;;0.93;0.80;;;;;;;;;;5118789;28;20197;-81
2022/04/08 11:13:11;;;;;;;0.67;0.60;;;;;;;;;;5118468;28;20211;-81
2022/04/08 11:15:43;;;;;;;0.67;0.60;;;;;;;;;;5118598;28;20220;-82
2022/04/08 11:18:11;;;;;;;0.80;0.70;;;;;;;;;;5118290;28;20207;-81
2022/04/08 11:20:40;;;;;;;0.80;0.73;;;;;;;;;;5118048;28;20230;-79
2022/04/08 11:23:08;;;;;;;1.17;0.80;;;;;;;;;;5110694;28;20199;-81
2022/04/08 11:25:36;;;;;;;3.00;0.83;;;;;;;;;;5118785;28;20216;-81
2022/04/08 11:28:06;;;;;;;0.70;0.70;;;;;;;;;;5118554;28;20207;-80
2022/04/08 11:30:34;;;;;;;0.70;0.70;;;;;;;;;;5118659;28;20197;-81
2022/04/08 11:33:12;;;;;;;0.87;0.87;;;;;;;;;;5117313;28;20211;-80
2022/04/08 11:35:42;;;;;;;0.80;0.80;;;;;;;;;;5117984;28;20715;-80
2022/04/08 11:38:13;;;;;;;1.00;1.00;;;;;;;;;;5118229;28;20205;-80
2022/04/08 11:40:42;;;;;;;1.00;0.80;;;;;;;;;;5118265;28;20201;-80
2022/04/08 11:43:12;;;;;;;0.97;0.93;;;;;;;;;;5118096;28;20205;-81
2022/04/08 11:45:40;;;;;;;1.03;0.77;;;;;;;;;;5117857;28;20216;-82
2022/04/08 11:48:13;;;;;;;2.13;0.83;;;;;;;;;;5117831;28;20208;-82
2022/04/08 11:50:43;;;;;;;0.70;0.70;;;;;;;;;;5118110;28;20232;-81
2022/04/08 11:53:14;;;;;;;0.70;0.60;;;;;;;;;;5117888;28;20287;-79
2022/04/08 11:55:52;;;;;;;0.80;0.67;;;;;;;;;;5110122;28;20235;-80
2022/04/08 11:58:20;;;;;;;2.83;0.90;;;;;;;;;;5118011;28;20204;-80
2022/04/08 12:00:51;;;;;;;2.87;0.67;;;;;;;;;;5117578;28;20229;-81
2022/04/08 12:03:21;;;;;;;1.63;0.80;;;;;;;;;;5118106;28;20200;-79
2022/04/08 12:05:51;;;;;;;1.07;0.93;;;;;;;;;;5111424;28;20577;-81
2022/04/08 12:08:37;;;;;;;1.37;1.10;;;;;;;;;;5117819;28;20205;-81
2022/04/08 12:11:09;;;;;;;2.30;1.00;;;;;;;;;;5118172;28;20224;-81
2022/04/08 12:13:39;;;;;;;2.47;1.00;;;;;;;;;;5117917;28;20205;-81
2022/04/08 12:16:09;;;;;;;2.83;1.07;;;;;;;;;;5117501;28;20695;-78
2022/04/08 12:18:46;;;;;;;2.00;0.97;;;;;;;;;;5117866;28;20233;-82
2022/04/08 12:21:20;;;;;;;1.73;1.17;;;;;;;;;;5117581;28;20213;-80
2022/04/08 12:23:49;;;;;;;6.47;1.20;;;;;;;;;;5117424;28;20214;-80
2022/04/08 12:26:20;;;;;;;4.27;1.83;;;;;;;;;;5117702;28;20220;-80
2022/04/08 12:28:48;;;;;;;1.93;1.00;;;;;;;;;;5117572;28;20196;-79
2022/04/08 12:31:17;;;;;;;1.50;1.10;;;;;;;;;;5117882;28;20199;-79
2022/04/08 12:33:46;;;;;;;1.13;1.00;;;;;;;;;;5117422;28;20607;-80
2022/04/08 12:36:13;;;;;;;1.80;0.97;;;;;;;;;;5117780;28;20217;-80
2022/04/08 12:38:43;;;;;;;1.27;1.03;;;;;;;;;;5117119;28;20228;-79
2022/04/08 12:41:12;;;;;;;1.60;1.00;;;;;;;;;;5117429;28;20203;-82
2022/04/08 12:43:40;;;;;;;0.93;0.93;;;;;;;;;;5119253;28;20196;-81
2022/04/08 12:46:08;;;;;;;2.50;1.10;;;;;;;;;;5121674;28;20648;-80
2022/04/08 12:48:36;;;;;;;2.50;1.30;;;;;;;;;;5121884;28;20543;-81
2022/04/08 12:51:07;;;;;;;3.13;1.10;;;;;;;;;;5121341;28;20296;-80
2022/04/08 12:53:36;;;;;;;2.47;1.43;;;;;;;;;;5121474;28;20659;-81
2022/04/08 12:56:05;;;;;;;1.80;1.17;;;;;;;;;;5121399;28;20311;-79
2022/04/08 12:58:33;;;;;;;2.67;1.10;;;;;;;;;;5121908;28;20201;-80
2022/04/08 13:01:01;;;;;;;1.70;1.37;;;;;;;;;;5121215;27;20239;-80
2022/04/08 13:03:31;;;;;;;2.60;1.40;;;;;;;;;;5121506;28;20270;-79
2022/04/08 13:05:59;;;;;;;1.30;1.10;;;;;;;;;;5120997;28;20224;-80
2022/04/08 13:08:27;;;;;;;2.43;1.30;;;;;;;;;;5121329;28;20256;-79
2022/04/08 13:10:55;;;;;;;2.33;1.10;;;;;;;;;;5121074;28;20664;-79
2022/04/08 13:13:24;;;;;;;1.13;0.93;;;;;;;;;;5113981;28;20188;-80
2022/04/08 13:15:52;;;;;;;1.53;1.13;;;;;;;;;;5120933;28;20707;-79
2022/04/08 13:18:20;;;;;;;1.13;0.80;;;;;;;;;;5120978;28;20196;-80
2022/04/08 13:20:49;;;;;;;1.33;1.10;;;;;;;;;;5120737;28;20234;-79
2022/04/08 13:23:17;;;;;;;2.30;0.97;;;;;;;;;;5121050;28;20361;-80
2022/04/08 13:25:45;;;;;;;3.70;1.43;;;;;;;;;;5120552;28;20713;-81
2022/04/08 13:28:15;;;;;;;1.90;1.30;;;;;;;;;;5120769;27;20652;-79
2022/04/08 13:30:45;;;;;;;1.73;0.93;;;;;;;;;;5120848;28;20199;-79
2022/04/08 13:33:13;;;;;;;2.87;1.00;;;;;;;;;;5120528;28;20197;-79
2022/04/08 13:35:41;;;;;;;6.27;1.30;;;;;;;;;;5120602;28;20213;-79
2022/04/08 13:38:09;;;;;;;1.47;1.37;;;;;;;;;;5120352;28;20242;-80
2022/04/08 13:40:37;;;;;;;1.50;0.90;;;;;;;;;;5120665;28;20201;-80
2022/04/08 13:43:05;;;;;;;0.90;0.90;;;;;;;;;;5121193;28;20227;-81
2022/04/08 13:45:33;;;;;;;1.47;0.97;;;;;;;;;;5121617;28;20217;-80
2022/04/08 13:48:03;;;;;;;3.17;1.00;;;;;;;;;;5121181;28;20193;-80
2022/04/08 13:50:30;;;;;;;1.10;1.00;;;;;;;;;;5120306;28;20211;-82
2022/04/08 13:52:58;;;;;;;1.40;1.00;;;;;;;;;;5120312;28;20204;-80
2022/04/08 13:55:26;;;;;;;2.17;1.13;;;;;;;;;;5118383;28;20220;-80
2022/04/08 13:57:54;;;;;;;0.93;0.93;;;;;;;;;;5120527;28;20201;-81
2022/04/08 14:00:24;;;;;;;3.33;1.17;;;;;;;;;;5119697;28;20232;-81
2022/04/08 14:02:52;;;;;;;3.30;0.93;;;;;;;;;;5119972;28;20223;-80
2022/04/08 14:05:21;;;;;;;1.57;1.17;;;;;;;;;;5120003;28;20225;-81
2022/04/08 14:07:49;;;;;;;1.33;1.00;;;;;;;;;;5116740;28;20201;-81
2022/04/08 14:10:19;;;;;;;1.20;1.10;;;;;;;;;;5119630;28;20205;-81
2022/04/08 14:12:47;;;;;;;1.27;1.00;;;;;;;;;;5119571;28;20193;-81
2022/04/08 14:15:15;;;;;;;4.13;1.20;;;;;;;;;;5119942;28;20201;-82
2022/04/08 14:17:51;;;;;;;2.17;1.50;;;;;;;;;;5119889;28;20238;-81
2022/04/08 14:20:21;;;;;;;4.70;1.23;;;;;;;;;;5115143;28;20204;-81
2022/04/08 14:22:49;;;;;;;4.73;1.63;;;;;;;;;;5119578;28;20311;-81
2022/04/08 14:25:16;;;;;;;1.57;1.20;;;;;;;;;;5119542;28;20288;-82
2022/04/08 14:28:00;;;;;;;1.40;0.90;;;;;;;;;;5111881;28;20265;-82
2022/04/08 14:30:28;;;;;;;2.37;1.07;;;;;;;;;;5119588;28;20231;-81
2022/04/08 14:32:56;;;;;;;1.43;1.00;;;;;;;;;;5119449;28;20197;-80
2022/04/08 14:35:26;;;;;;;1.50;0.97;;;;;;;;;;5119421;27;20225;-82
2022/04/08 14:37:54;;;;;;;1.20;1.10;;;;;;;;;;5119103;28;20205;-80
2022/04/08 14:40:22;;;;;;;2.47;1.40;;;;;;;;;;5119138;28;20733;-82
2022/04/08 14:42:50;;;;;;;2.57;1.30;;;;;;;;;;5119184;28;20224;-81
2022/04/08 14:45:18;;;;;;;1.97;1.00;;;;;;;;;;5119195;28;20225;-81
2022/04/08 14:47:46;;;;;;;3.70;1.30;;;;;;;;;;5119123;28;20246;-81
2022/04/08 14:50:14;;;;;;;2.97;1.50;;;;;;;;;;5118672;28;20664;-81
2022/04/08 14:52:43;;;;;;;1.40;1.30;;;;;;;;;;5118885;28;20197;-81
2022/04/08 14:55:11;;;;;;;1.87;0.93;;;;;;;;;;5115638;28;20203;-81